Time;durP1;ratioP1;P1;durP2;ratioP2;P2;SDS_P1;SDS_P2;PMS_P1;PMS_P2;Temp;Humidity;BMP_temperature;BMP_pressure;BME280_temperature;BME280_humidity;BME280_pressure;Samples;Min_cycle;Max_cycle;Signal;HPM_P1;HPM_P2
2022/12/02 00:01:38;;;;;;;25.40;12.65;;;;;;;1.06;70.76;99326.22;5050349;28;20033;-75
2022/12/02 00:04:26;;;;;;;23.00;11.00;;;;;;;1.02;70.95;99323.09;5051457;28;20474;-75
2022/12/02 00:06:53;;;;;;;20.95;10.70;;;;;;;0.99;71.12;99318.16;5049952;28;20116;-76
2022/12/02 00:09:31;;;;;;;20.23;10.68;;;;;;;0.94;71.32;99320.66;5051014;28;20697;-75
2022/12/02 00:12:23;;;;;;;21.80;12.02;;;;;;;0.89;71.35;99323.97;5051034;28;20033;-75
2022/12/02 00:14:55;;;;;;;22.83;12.00;;;;;;;0.88;71.00;99320.47;5052420;28;20025;-75
2022/12/02 00:17:21;;;;;;;21.75;11.05;;;;;;;0.88;71.51;99317.75;5052021;28;20032;-75
2022/12/02 00:19:47;;;;;;;20.08;11.70;;;;;;;0.91;71.11;99321.06;5050605;28;20017;-75
2022/12/02 00:22:12;;;;;;;21.05;11.35;;;;;;;0.96;71.44;99323.97;5050626;28;20025;-75
2022/12/02 00:24:37;;;;;;;20.42;11.30;;;;;;;0.95;70.95;99317.72;5048446;28;20021;-75
2022/12/02 00:27:03;;;;;;;22.60;11.35;;;;;;;0.97;71.05;99320.22;5048876;28;20033;-75
2022/12/02 00:29:28;;;;;;;20.77;11.40;;;;;;;1.00;71.25;99317.09;5051602;28;20128;-75
2022/12/02 00:31:54;;;;;;;21.23;12.00;;;;;;;1.04;71.49;99318.31;5051708;28;20037;-74
2022/12/02 00:34:19;;;;;;;22.13;11.75;;;;;;;1.08;71.21;99314.16;5051125;28;20032;-75
2022/12/02 00:36:44;;;;;;;22.98;12.07;;;;;;;1.14;71.80;99320.59;5050454;28;20036;-75
2022/12/02 00:39:10;;;;;;;23.02;11.32;;;;;;;1.14;71.06;99313.31;5051659;28;20568;-76
2022/12/02 00:41:35;;;;;;;25.30;12.68;;;;;;;1.14;71.43;99316.00;5051692;28;20028;-76
2022/12/02 00:46:44;;;;;;;24.67;13.05;;;;;;;1.21;71.73;99312.44;5050008;28;20892;-76
2022/12/02 00:49:12;;;;;;;24.10;12.48;;;;;;;1.21;71.16;99310.59;5050277;28;20040;-75
2022/12/02 00:51:40;;;;;;;22.67;11.82;;;;;;;1.19;71.07;99318.09;5050150;28;20049;-75
2022/12/02 00:54:05;;;;;;;22.73;11.60;;;;;;;1.13;70.96;99306.25;5050372;28;20036;-75
2022/12/02 00:56:32;;;;;;;19.60;11.07;;;;;;;1.10;71.37;99309.38;5048542;28;20025;-75
2022/12/02 00:58:58;;;;;;;20.63;11.38;;;;;;;1.08;71.40;99308.75;5051218;28;20374;-75
2022/12/02 01:01:23;;;;;;;20.42;10.90;;;;;;;1.04;71.26;99311.06;5050850;28;20036;-75
2022/12/02 01:03:49;;;;;;;22.60;11.40;;;;;;;1.00;70.78;99309.81;5049638;28;20037;-75
2022/12/02 01:06:14;;;;;;;21.40;12.23;;;;;;;0.94;71.05;99312.56;5051376;28;20059;-75
2022/12/02 01:08:40;;;;;;;21.52;11.55;;;;;;;0.91;71.17;99310.28;5052098;28;20043;-75
2022/12/02 01:11:06;;;;;;;19.27;10.60;;;;;;;0.85;70.72;99310.06;5048995;28;20025;-75
2022/12/02 01:13:31;;;;;;;20.38;10.85;;;;;;;0.83;70.99;99305.91;5052063;28;20036;-75
2022/12/02 01:15:57;;;;;;;19.70;11.07;;;;;;;0.83;71.21;99316.72;5051374;28;20029;-75
2022/12/02 01:18:22;;;;;;;22.15;10.98;;;;;;;0.83;70.57;99312.16;5051331;28;20029;-75
2022/12/02 01:20:48;;;;;;;21.65;11.50;;;;;;;0.84;70.66;99305.72;5051458;28;20036;-75
2022/12/02 01:23:13;;;;;;;19.75;10.77;;;;;;;0.85;71.39;99304.66;5050867;28;20064;-75
2022/12/02 01:25:39;;;;;;;21.48;11.05;;;;;;;0.86;71.48;99309.03;5050833;28;20055;-76
2022/12/02 01:28:04;;;;;;;19.08;10.65;;;;;;;0.88;70.79;99304.25;5050000;28;20036;-76
2022/12/02 01:30:30;;;;;;;20.10;11.10;;;;;;;0.90;70.97;99306.72;5051012;28;20393;-76
2022/12/02 01:32:55;;;;;;;20.15;11.50;;;;;;;0.91;71.12;99311.09;5051550;28;20024;-75
2022/12/02 01:35:20;;;;;;;22.35;12.18;;;;;;;0.91;71.51;99300.28;5051101;28;20061;-75
2022/12/02 01:37:47;;;;;;;19.50;11.07;;;;;;;0.96;70.86;99303.19;5050521;28;20040;-75
2022/12/02 01:40:13;;;;;;;24.50;11.52;;;;;;;0.99;71.25;99301.94;5050882;28;20028;-76
2022/12/02 01:42:39;;;;;;;23.17;12.60;;;;;;;1.04;70.82;99296.69;5050127;28;20072;-75
2022/12/02 01:45:06;;;;;;;22.20;11.52;;;;;;;1.08;71.08;99297.94;5050176;28;20033;-75
2022/12/02 01:47:32;;;;;;;22.58;12.60;;;;;;;1.10;71.23;99298.56;5049872;28;20025;-75
2022/12/02 01:49:58;;;;;;;24.27;12.45;;;;;;;1.12;70.81;99301.88;5050195;28;20021;-76
2022/12/02 01:52:24;;;;;;;21.00;11.30;;;;;;;1.13;70.91;99303.53;5051338;28;20037;-75
2022/12/02 01:54:50;;;;;;;19.48;11.43;;;;;;;1.13;70.70;99294.63;5050735;28;20108;-76
2022/12/02 01:57:18;;;;;;;19.80;11.55;;;;;;;1.13;71.00;99287.31;5050358;28;20024;-76
2022/12/02 01:59:44;;;;;;;21.70;10.75;;;;;;;1.11;70.84;99291.28;5049745;28;20033;-76
2022/12/02 02:02:29;;;;;;;18.27;10.23;;;;;;;1.05;70.85;99295.66;5050796;28;20037;-76
2022/12/02 02:04:58;;;;;;;21.70;11.73;;;;;;;1.00;70.19;99298.19;5050292;28;20029;-76
2022/12/02 02:07:24;;;;;;;16.90;9.80;;;;;;;0.92;70.29;99288.44;5050539;28;20032;-76
2022/12/02 02:09:50;;;;;;;22.75;11.07;;;;;;;0.86;70.42;99290.13;5048210;28;20099;-76
2022/12/02 02:12:16;;;;;;;19.08;10.95;;;;;;;0.82;70.42;99291.59;5050960;28;20424;-76
2022/12/02 02:14:42;;;;;;;18.23;10.05;;;;;;;0.78;70.65;99284.13;5050952;28;20039;-76
2022/12/02 02:17:07;;;;;;;19.75;10.05;;;;;;;0.74;70.78;99283.72;5049188;28;20094;-76
2022/12/02 02:19:33;;;;;;;17.85;10.55;;;;;;;0.70;70.38;99277.91;5048703;28;20087;-76
2022/12/02 02:22:00;;;;;;;18.38;10.05;;;;;;;0.68;70.39;99281.84;5049816;28;20028;-76
2022/12/02 02:24:25;;;;;;;22.55;11.07;;;;;;;0.69;70.94;99281.66;5050538;28;20054;-76
2022/12/02 02:26:51;;;;;;;18.17;10.20;;;;;;;0.68;70.11;99279.16;5048154;28;20029;-76
2022/12/02 02:29:16;;;;;;;20.90;10.82;;;;;;;0.65;70.35;99275.00;5047877;28;20074;-76
2022/12/02 02:31:42;;;;;;;19.67;10.32;;;;;;;0.64;71.02;99272.50;5050319;28;20060;-76
2022/12/02 02:34:07;;;;;;;21.15;10.95;;;;;;;0.64;70.25;99273.34;5050143;28;20029;-75
2022/12/02 02:36:33;;;;;;;19.48;10.63;;;;;;;0.65;70.21;99276.88;5050206;28;20041;-76
2022/12/02 02:38:59;;;;;;;19.75;10.18;;;;;;;0.64;70.23;99267.09;5047265;28;20036;-75
2022/12/02 02:41:26;;;;;;;22.00;10.60;;;;;;;0.62;70.11;99266.50;5049940;28;20017;-75
2022/12/02 02:43:52;;;;;;;20.63;10.02;;;;;;;0.61;70.19;99278.38;5051630;28;20028;-76
2022/12/02 02:46:17;;;;;;;19.05;10.63;;;;;;;0.59;70.39;99268.59;5046378;28;20036;-76
2022/12/02 02:48:44;;;;;;;19.45;9.52;;;;;;;0.61;70.75;99273.78;5049563;28;20021;-75
2022/12/02 02:51:11;;;;;;;20.17;10.23;;;;;;;0.59;70.14;99270.47;5046928;28;20100;-75
2022/12/02 02:53:36;;;;;;;19.60;10.38;;;;;;;0.58;70.71;99263.41;5048258;28;20029;-77
2022/12/02 02:56:02;;;;;;;19.77;10.43;;;;;;;0.61;70.13;99270.25;5047250;28;20102;-77
2022/12/02 02:58:27;;;;;;;17.77;9.40;;;;;;;0.59;70.41;99256.97;5049166;28;20033;-77
2022/12/02 03:00:53;;;;;;;19.00;9.32;;;;;;;0.56;70.91;99258.22;5045688;28;20029;-76
2022/12/02 03:03:22;;;;;;;17.90;9.95;;;;;;;0.51;70.21;99255.31;5048820;28;20408;-76
2022/12/02 03:05:50;;;;;;;16.98;8.63;;;;;;;0.47;70.54;99251.38;5047270;28;20891;-76
2022/12/02 03:08:15;;;;;;;18.30;8.77;;;;;;;0.43;70.71;99255.53;5049635;28;20033;-76
2022/12/02 03:10:41;;;;;;;19.17;10.40;;;;;;;0.40;70.58;99251.41;5047611;28;20039;-76
2022/12/02 03:13:07;;;;;;;18.55;9.00;;;;;;;0.36;70.27;99271.75;5047286;28;20033;-76
2022/12/02 03:15:32;;;;;;;18.90;10.02;;;;;;;0.33;70.81;99260.53;5049441;28;20040;-75
2022/12/02 03:17:58;;;;;;;17.45;8.55;;;;;;;0.28;70.64;99267.38;5045221;28;20059;-76
2022/12/02 03:20:24;;;;;;;17.25;9.13;;;;;;;0.26;70.25;99253.25;5047290;28;20072;-76
2022/12/02 03:22:49;;;;;;;15.85;9.15;;;;;;;0.26;70.61;99265.94;5049251;28;20767;-76
2022/12/02 03:25:15;;;;;;;16.27;8.90;;;;;;;0.24;70.45;99260.72;5048186;28;20104;-76
2022/12/02 03:27:41;;;;;;;16.50;8.70;;;;;;;0.20;70.62;99255.97;5045841;28;20143;-76
2022/12/02 03:30:07;;;;;;;17.40;8.77;;;;;;;0.20;70.94;99262.22;5046914;28;20386;-76
2022/12/02 03:32:33;;;;;;;16.38;8.85;;;;;;;0.20;70.35;99264.06;5046287;28;20025;-76
2022/12/02 03:35:00;;;;;;;16.38;8.82;;;;;;;0.21;70.24;99253.06;5049662;28;20036;-76
2022/12/02 03:37:26;;;;;;;15.75;7.80;;;;;;;0.21;70.82;99252.25;5049397;28;20044;-76
2022/12/02 03:39:51;;;;;;;19.17;9.38;;;;;;;0.20;70.73;99250.59;5049527;28;20028;-75
2022/12/02 03:42:17;;;;;;;15.93;8.68;;;;;;;0.17;70.50;99249.16;5048496;28;20476;-76
2022/12/02 03:44:43;;;;;;;18.10;8.77;;;;;;;0.17;70.79;99253.69;5050294;28;20083;-76
2022/12/02 03:47:08;;;;;;;16.98;8.93;;;;;;;0.15;70.87;99259.31;5049463;28;20421;-76
2022/12/02 03:49:35;;;;;;;16.90;9.00;;;;;;;0.15;70.76;99256.63;5049328;28;20032;-76
2022/12/02 03:52:02;;;;;;;14.80;7.78;;;;;;;0.13;70.78;99247.91;5048665;28;20130;-76
2022/12/02 03:54:27;;;;;;;15.50;8.52;;;;;;;0.13;70.63;99251.41;5049874;28;20459;-76
2022/12/02 03:56:53;;;;;;;15.05;7.97;;;;;;;0.12;70.87;99248.94;5047832;28;20479;-75
2022/12/02 03:59:26;;;;;;;15.35;8.05;;;;;;;0.12;70.40;99265.13;5049346;28;20036;-76
2022/12/02 04:01:51;;;;;;;14.18;7.25;;;;;;;0.12;70.61;99257.03;5048422;28;20107;-76
2022/12/02 04:04:17;;;;;;;15.82;8.65;;;;;;;0.12;70.29;99265.94;5049659;28;20048;-75
2022/12/02 04:06:42;;;;;;;15.52;7.93;;;;;;;0.11;70.47;99260.75;5049820;28;20037;-75
2022/12/02 04:09:07;;;;;;;18.25;8.98;;;;;;;0.07;70.31;99268.41;5049551;28;20033;-76
2022/12/02 04:11:33;;;;;;;16.73;7.60;;;;;;;0.05;70.59;99264.28;5049412;28;20056;-76
2022/12/02 04:13:58;;;;;;;13.70;7.70;;;;;;;0.04;70.30;99265.31;5048574;28;20546;-76
2022/12/02 04:16:24;;;;;;;16.77;8.55;;;;;;;0.03;70.62;99264.47;5048274;28;20033;-76
2022/12/02 04:18:49;;;;;;;17.95;8.45;;;;;;;0.03;70.65;99261.78;5046962;28;20032;-76
2022/12/02 04:21:14;;;;;;;13.20;7.82;;;;;;;0.03;70.59;99258.28;5051267;28;20166;-76
2022/12/02 04:23:40;;;;;;;13.75;7.63;;;;;;;0.01;70.47;99260.34;5047902;28;20025;-76
2022/12/02 04:26:05;;;;;;;14.88;8.38;;;;;;;-0.01;70.34;99261.38;5051330;28;20021;-76
2022/12/02 04:28:31;;;;;;;19.25;8.95;;;;;;;0.01;70.67;99254.94;5049073;28;20108;-76
2022/12/02 04:30:56;;;;;;;17.70;8.50;;;;;;;0.03;70.72;99255.56;5047448;28;20017;-76
2022/12/02 04:33:22;;;;;;;15.75;8.43;;;;;;;0.04;70.71;99249.94;5048785;28;20036;-76
2022/12/02 04:35:47;;;;;;;15.50;7.78;;;;;;;0.02;70.56;99246.63;5049849;28;20513;-76
2022/12/02 04:38:13;;;;;;;17.20;7.88;;;;;;;0.07;71.02;99243.34;5048377;28;20122;-76
2022/12/02 04:40:38;;;;;;;16.80;8.27;;;;;;;0.09;70.46;99246.66;5050830;28;20037;-76
2022/12/02 04:43:04;;;;;;;16.02;8.13;;;;;;;0.13;70.74;99235.22;5052389;28;20037;-76
2022/12/02 04:45:29;;;;;;;16.70;8.55;;;;;;;0.13;70.67;99245.19;5052697;28;20037;-76
2022/12/02 04:47:54;;;;;;;15.98;8.25;;;;;;;0.08;70.87;99240.41;5051286;28;20064;-76
2022/12/02 04:50:20;;;;;;;15.02;8.55;;;;;;;0.08;70.61;99236.91;5048908;28;20044;-76
2022/12/02 04:52:45;;;;;;;15.88;8.88;;;;;;;0.07;70.76;99240.63;5052855;28;20041;-76
2022/12/02 04:55:11;;;;;;;16.45;8.38;;;;;;;0.06;70.80;99245.19;5052668;28;20171;-76
2022/12/02 04:57:36;;;;;;;14.52;7.88;;;;;;;0.06;70.82;99239.78;5048461;28;20481;-76
2022/12/02 05:00:03;;;;;;;17.33;9.07;;;;;;;0.06;70.71;99245.19;5052278;28;20044;-76
2022/12/02 05:02:29;;;;;;;15.77;9.18;;;;;;;0.07;70.74;99249.53;5051770;28;20051;-76
2022/12/02 05:04:54;;;;;;;15.40;8.35;;;;;;;0.08;70.60;99248.50;5048734;28;20112;-76
2022/12/02 05:07:19;;;;;;;17.08;9.00;;;;;;;0.07;70.78;99241.44;5047958;28;20061;-76
2022/12/02 05:09:45;;;;;;;18.73;8.45;;;;;;;0.06;70.95;99241.69;5052486;28;20028;-76
2022/12/02 05:12:10;;;;;;;17.92;8.80;;;;;;;0.00;70.62;99240.66;5052415;28;20032;-76
2022/12/02 05:14:36;;;;;;;17.67;9.45;;;;;;;-0.05;70.84;99237.75;5051346;28;20032;-76
2022/12/02 05:17:01;;;;;;;16.88;9.43;;;;;;;-0.07;71.17;99242.50;5051283;28;20091;-75
2022/12/02 05:19:26;;;;;;;16.25;9.32;;;;;;;-0.09;70.83;99244.59;5052135;28;20036;-76
2022/12/02 05:21:52;;;;;;;17.23;8.75;;;;;;;-0.13;70.92;99251.41;5051434;28;20041;-76
2022/12/02 05:24:17;;;;;;;16.30;9.00;;;;;;;-0.13;70.54;99254.94;5051197;28;20112;-76
2022/12/02 05:26:42;;;;;;;15.32;8.45;;;;;;;-0.13;70.75;99246.84;5051413;28;20064;-76
2022/12/02 05:29:08;;;;;;;20.55;9.27;;;;;;;-0.14;70.85;99249.75;5052059;28;20037;-76
2022/12/02 05:31:33;;;;;;;16.90;8.57;;;;;;;-0.14;71.21;99255.16;5051522;28;20075;-76
2022/12/02 05:33:58;;;;;;;17.45;9.82;;;;;;;-0.12;70.75;99247.69;5052188;28;20060;-76
2022/12/02 05:36:24;;;;;;;17.70;9.02;;;;;;;-0.09;70.78;99249.97;5049731;28;20025;-76
2022/12/02 05:38:49;;;;;;;20.70;9.50;;;;;;;-0.08;71.11;99251.63;5052356;28;20553;-76
2022/12/02 05:41:15;;;;;;;17.15;8.80;;;;;;;-0.08;71.10;99255.16;5051729;28;20075;-76
2022/12/02 05:43:42;;;;;;;17.70;9.52;;;;;;;-0.05;70.79;99254.75;5051032;28;20025;-77
2022/12/02 05:46:15;;;;;;;17.58;8.70;;;;;;;-0.02;70.83;99257.03;5046670;28;20041;-75
2022/12/02 05:48:42;;;;;;;16.50;8.38;;;;;;;0.02;70.84;99260.13;5049660;28;20059;-75
2022/12/02 05:51:16;;;;;;;16.42;8.45;;;;;;;0.04;71.08;99257.22;5051415;28;20029;-75
2022/12/02 05:53:43;;;;;;;17.27;8.93;;;;;;;0.04;70.69;99252.66;5050014;28;20055;-75
2022/12/02 05:56:19;;;;;;;15.25;7.53;;;;;;;0.05;70.80;99253.50;5049084;28;20025;-75
2022/12/02 05:58:44;;;;;;;14.98;7.53;;;;;;;0.05;70.47;99261.59;5051415;28;20075;-75
2022/12/02 06:01:19;;;;;;;13.48;7.65;;;;;;;0.00;70.88;99256.81;5050308;28;20490;-75
2022/12/02 06:03:45;;;;;;;14.70;7.63;;;;;;;0.01;70.86;99263.03;5049174;28;20029;-75
2022/12/02 06:06:11;;;;;;;14.77;7.38;;;;;;;0.02;71.20;99254.72;5052900;28;20043;-74
2022/12/02 06:08:36;;;;;;;16.48;7.90;;;;;;;0.04;71.02;99260.75;5050032;28;20072;-75
2022/12/02 06:11:10;;;;;;;13.57;7.32;;;;;;;0.06;70.64;99268.66;5054400;28;20033;-75
2022/12/02 06:13:37;;;;;;;14.55;8.13;;;;;;;0.05;70.89;99264.28;5052024;28;20033;-75
2022/12/02 06:16:06;;;;;;;13.50;7.57;;;;;;;0.07;70.79;99264.91;5050893;28;20033;-75
2022/12/02 06:18:34;;;;;;;13.53;7.10;;;;;;;0.09;70.61;99269.03;5051387;28;20087;-75
2022/12/02 06:21:02;;;;;;;15.15;7.35;;;;;;;0.09;70.90;99268.22;5049757;28;20036;-75
2022/12/02 06:23:31;;;;;;;12.18;6.75;;;;;;;0.08;70.61;99259.28;5051739;28;20033;-75
2022/12/02 06:25:57;;;;;;;14.05;7.25;;;;;;;0.08;70.81;99262.00;5051143;28;20060;-76
2022/12/02 06:28:29;;;;;;;13.02;7.13;;;;;;;0.11;70.72;99263.47;5050994;28;20070;-75
2022/12/02 06:31:00;;;;;;;13.50;7.13;;;;;;;0.10;70.75;99256.41;5051453;28;20021;-76
2022/12/02 06:33:34;;;;;;;10.48;6.20;;;;;;;0.07;70.34;99259.53;5053408;28;20032;-74
2022/12/02 06:36:03;;;;;;;12.07;6.65;;;;;;;0.04;70.67;99257.22;5051201;28;20021;-75
2022/12/02 06:38:35;;;;;;;12.95;6.32;;;;;;;0.01;70.54;99252.25;5050122;28;20139;-76
2022/12/02 06:41:14;;;;;;;12.55;6.65;;;;;;;0.00;70.31;99262.22;5051638;28;20021;-76
2022/12/02 06:43:40;;;;;;;13.20;7.05;;;;;;;-0.01;70.28;99266.78;5051449;28;20021;-77
2022/12/02 06:46:16;;;;;;;12.07;7.18;;;;;;;-0.06;70.68;99265.75;5051206;28;20126;-77
2022/12/02 06:48:42;;;;;;;12.02;6.63;;;;;;;-0.03;70.61;99273.41;5050505;28;20041;-76
2022/12/02 06:51:18;;;;;;;12.90;6.75;;;;;;;-0.03;70.63;99268.84;5052745;28;20029;-78
2022/12/02 06:53:45;;;;;;;14.07;7.07;;;;;;;0.00;70.44;99264.91;5046503;28;20048;-75
2022/12/02 06:56:16;;;;;;;12.60;7.20;;;;;;;-0.01;70.75;99271.34;5046647;28;20496;-74
2022/12/02 06:58:45;;;;;;;14.05;8.15;;;;;;;-0.01;70.18;99274.03;5047982;28;20033;-75
2022/12/02 07:01:24;;;;;;;10.80;6.43;;;;;;;-0.01;70.60;99272.16;5049739;28;20033;-74
2022/12/02 07:04:08;;;;;;;19.63;10.32;;;;;;;0.01;70.31;99280.03;5048311;28;20029;-74
2022/12/02 07:06:38;;;;;;;30.20;16.67;;;;;;;0.03;70.70;99277.97;5048752;28;20031;-74
2022/12/02 07:09:31;;;;;;;14.68;8.45;;;;;;;0.02;70.76;99270.91;5047229;28;20044;-73
2022/12/02 07:11:58;;;;;;;13.48;7.60;;;;;;;0.06;70.33;99276.75;5047222;28;20055;-73
2022/12/02 07:14:45;;;;;;;15.43;9.13;;;;;;;0.08;70.49;99283.56;5048772;28;20037;-73
2022/12/02 07:17:25;;;;;;;16.77;8.15;;;;;;;0.11;70.59;99279.66;5049144;28;20028;-73
2022/12/02 07:20:00;;;;;;;19.45;11.25;;;;;;;0.13;70.42;99280.28;5049641;28;20040;-73
2022/12/02 07:22:34;;;;;;;20.77;12.38;;;;;;;0.16;70.30;99281.72;5048832;28;20044;-73
2022/12/02 07:25:09;;;;;;;17.88;8.80;;;;;;;0.19;70.33;99274.03;5054671;28;20090;-74
2022/12/02 07:27:40;;;;;;;15.05;7.60;;;;;;;0.21;70.18;99276.53;5052722;28;20041;-74
2022/12/02 07:30:24;;;;;;;15.23;8.38;;;;;;;0.24;70.44;99281.50;5051847;28;20032;-74
2022/12/02 07:32:50;;;;;;;14.90;7.88;;;;;;;0.27;70.47;99286.50;5051464;28;20113;-74
2022/12/02 07:35:15;;;;;;;14.35;7.88;;;;;;;0.25;70.44;99281.28;5048148;28;20512;-74
2022/12/02 07:37:40;;;;;;;13.45;7.40;;;;;;;0.25;70.35;99280.47;5048615;28;20103;-76
2022/12/02 07:40:06;;;;;;;13.27;7.40;;;;;;;0.22;70.46;99279.00;5048110;28;20029;-74
2022/12/02 07:42:31;;;;;;;11.30;6.30;;;;;;;0.23;70.45;99285.25;5048897;28;20099;-74
2022/12/02 07:44:57;;;;;;;13.32;7.72;;;;;;;0.24;70.06;99284.19;5047989;28;20037;-74
2022/12/02 07:47:22;;;;;;;13.90;7.75;;;;;;;0.21;70.30;99288.13;5046669;28;20394;-75
2022/12/02 07:49:48;;;;;;;16.75;9.15;;;;;;;0.19;70.24;99289.38;5045705;28;20040;-73
2022/12/02 07:52:13;;;;;;;16.63;8.38;;;;;;;0.17;70.23;99291.47;5046819;28;20546;-73
2022/12/02 07:54:39;;;;;;;15.98;8.88;;;;;;;0.16;70.52;99279.00;5048110;28;20033;-73
2022/12/02 07:57:04;;;;;;;17.33;11.25;;;;;;;0.13;70.09;99291.88;5048258;28;20808;-73
2022/12/02 07:59:29;;;;;;;17.58;10.35;;;;;;;0.11;70.58;99293.94;5048862;28;20025;-74
2022/12/02 08:01:55;;;;;;;15.43;8.63;;;;;;;0.13;70.13;99294.56;5049049;28;20032;-74
2022/12/02 08:04:20;;;;;;;15.07;8.63;;;;;;;0.15;70.23;99291.69;5048880;28;20031;-73
2022/12/02 08:06:45;;;;;;;17.98;9.10;;;;;;;0.14;70.44;99284.63;5047116;28;20486;-74
2022/12/02 08:09:11;;;;;;;15.65;7.20;;;;;;;0.13;70.23;99293.75;5048690;28;20087;-75
2022/12/02 08:11:37;;;;;;;16.25;9.85;;;;;;;0.13;70.09;99294.56;5048575;28;20504;-75
2022/12/02 08:14:03;;;;;;;13.55;8.52;;;;;;;0.14;70.58;99285.44;5048022;28;20481;-74
2022/12/02 08:16:28;;;;;;;16.08;8.30;;;;;;;0.13;70.38;99291.06;5052506;28;20033;-74
2022/12/02 08:18:53;;;;;;;13.02;7.78;;;;;;;0.10;70.46;99286.88;5052853;28;20040;-74
2022/12/02 08:21:19;;;;;;;15.02;8.40;;;;;;;0.12;70.57;99286.69;5052325;28;20036;-72
2022/12/02 08:23:44;;;;;;;14.82;8.18;;;;;;;0.08;70.28;99286.25;5051534;28;20466;-73
2022/12/02 08:26:10;;;;;;;16.60;7.93;;;;;;;0.09;70.42;99292.50;5052377;28;20417;-73
2022/12/02 08:28:35;;;;;;;14.18;7.50;;;;;;;0.11;70.60;99295.84;5053871;28;20477;-73
2022/12/02 08:31:00;;;;;;;10.50;5.93;;;;;;;0.13;70.41;99293.75;5053106;28;20021;-74
2022/12/02 08:33:26;;;;;;;39.03;19.23;;;;;;;0.15;70.75;99286.28;5052399;28;20025;-74
2022/12/02 08:35:51;;;;;;;16.25;7.55;;;;;;;0.15;70.24;99289.00;5052495;28;20029;-73
2022/12/02 08:38:17;;;;;;;14.73;7.15;;;;;;;0.16;70.69;99281.72;5052082;28;20037;-74
2022/12/02 08:40:43;;;;;;;13.10;6.78;;;;;;;0.17;70.57;99284.22;5051984;28;20033;-75
2022/12/02 08:43:08;;;;;;;12.13;6.85;;;;;;;0.15;70.46;99289.00;5053112;28;20037;-75
2022/12/02 08:45:33;;;;;;;14.30;7.53;;;;;;;0.14;70.17;99290.03;5052170;28;20037;-73
2022/12/02 08:47:59;;;;;;;12.63;6.72;;;;;;;0.18;70.69;99301.22;5051836;28;20453;-76
2022/12/02 08:50:24;;;;;;;13.88;7.30;;;;;;;0.18;70.47;99296.66;5052091;28;20044;-75
2022/12/02 08:52:50;;;;;;;75.20;27.08;;;;;;;0.19;70.55;99290.22;5051092;28;20045;-76
2022/12/02 08:55:15;;;;;;;26.25;10.50;;;;;;;0.19;70.33;99287.53;5052075;28;20037;-77
2022/12/02 08:57:40;;;;;;;48.55;16.13;;;;;;;0.22;70.53;99292.50;5051907;28;20021;-75
2022/12/02 09:00:08;;;;;;;46.20;13.82;;;;;;;0.26;70.53;99293.75;5050230;28;20029;-76
2022/12/02 09:02:34;;;;;;;22.63;11.32;;;;;;;0.28;70.88;99290.84;5051397;28;20033;-75
2022/12/02 09:05:00;;;;;;;22.33;10.05;;;;;;;0.28;70.48;99290.84;5051803;28;20465;-75
2022/12/02 09:07:25;;;;;;;31.33;12.10;;;;;;;0.22;70.59;99288.97;5052932;28;20071;-76
2022/12/02 09:09:51;;;;;;;16.15;7.70;;;;;;;0.22;70.49;99291.66;5048576;28;20432;-73
2022/12/02 09:12:16;;;;;;;39.92;15.07;;;;;;;0.20;70.87;99294.59;5048755;28;20025;-75
2022/12/02 09:14:42;;;;;;;24.02;10.80;;;;;;;0.17;70.41;99289.59;5045147;28;20060;-74
2022/12/02 09:17:07;;;;;;;19.38;9.23;;;;;;;0.14;70.38;99296.22;5057149;28;20043;-72
2022/12/02 09:19:32;;;;;;;19.45;9.50;;;;;;;0.12;70.79;99289.41;5050771;28;20489;-73
2022/12/02 09:21:58;;;;;;;15.40;7.78;;;;;;;0.17;70.55;99297.69;5049820;28;20662;-74
2022/12/02 09:24:23;;;;;;;17.52;8.68;;;;;;;0.16;70.27;99296.03;5050255;28;20025;-74
2022/12/02 09:26:48;;;;;;;13.98;7.78;;;;;;;0.14;70.60;99287.31;5045742;28;20021;-76
2022/12/02 09:29:15;;;;;;;16.73;8.48;;;;;;;0.17;70.45;99295.00;5048810;28;20476;-76
2022/12/02 09:31:40;;;;;;;14.15;7.57;;;;;;;0.20;70.83;99289.19;5049132;28;20077;-75
2022/12/02 09:34:06;;;;;;;16.92;8.10;;;;;;;0.22;70.37;99287.09;5051296;28;20037;-76
2022/12/02 09:36:31;;;;;;;14.55;7.88;;;;;;;0.22;70.39;99288.97;5050261;28;20051;-78
2022/12/02 09:38:56;;;;;;;16.75;9.18;;;;;;;0.19;70.61;99290.22;5048205;28;20029;-76
2022/12/02 09:41:22;;;;;;;20.67;11.38;;;;;;;0.19;70.39;99282.16;5049727;28;20036;-76
2022/12/02 09:43:48;;;;;;;23.45;13.18;;;;;;;0.19;70.77;99281.28;5048149;28;20441;-78
2022/12/02 09:46:13;;;;;;;14.68;8.35;;;;;;;0.20;70.65;99288.34;5049703;28;20029;-74
2022/12/02 09:48:39;;;;;;;15.75;8.18;;;;;;;0.17;70.91;99278.81;5050081;28;20083;-72
2022/12/02 09:51:04;;;;;;;15.05;7.78;;;;;;;0.19;70.87;99287.53;5050576;28;20079;-75
2022/12/02 09:53:38;;;;;;;14.30;8.27;;;;;;;0.22;71.17;99281.69;5051293;28;20029;-75
2022/12/02 09:56:05;;;;;;;14.80;7.72;;;;;;;0.26;70.77;99284.81;5048232;28;20658;-74
2022/12/02 09:58:30;;;;;;;15.73;8.25;;;;;;;0.31;70.93;99285.03;5048055;28;20033;-73
2022/12/02 10:00:56;;;;;;;15.73;7.72;;;;;;;0.31;70.81;99285.03;5047276;28;20100;-75
2022/12/02 10:03:25;;;;;;;16.00;8.88;;;;;;;0.31;70.43;99274.25;5048879;28;20021;-74
2022/12/02 10:05:51;;;;;;;16.77;8.65;;;;;;;0.32;70.48;99283.16;5048868;28;20128;-75
2022/12/02 10:08:24;;;;;;;13.45;7.45;;;;;;;0.33;70.70;99274.03;5048880;28;20028;-74
2022/12/02 10:10:53;;;;;;;16.90;8.98;;;;;;;0.31;70.63;99274.25;5052223;28;20029;-75
2022/12/02 10:13:19;;;;;;;18.92;10.45;;;;;;;0.30;70.57;99272.59;5053361;28;20039;-74
2022/12/02 10:15:45;;;;;;;17.17;8.77;;;;;;;0.31;70.76;99276.94;5031063;28;20044;-75
2022/12/02 10:18:28;;;;;;;17.25;10.60;;;;;;;0.29;70.50;99269.03;5051627;28;20045;-74
2022/12/02 10:20:54;;;;;;;16.52;8.95;;;;;;;0.29;70.46;99263.63;5047439;28;20036;-74
2022/12/02 10:23:21;;;;;;;17.40;9.00;;;;;;;0.28;70.32;99259.28;5048291;28;20049;-75
2022/12/02 10:26:08;;;;;;;16.30;8.75;;;;;;;0.28;70.47;99274.66;5047220;28;20110;-75
2022/12/02 10:28:36;;;;;;;12.38;7.13;;;;;;;0.28;70.32;99263.88;5048540;28;20074;-75
2022/12/02 10:31:12;;;;;;;14.48;7.57;;;;;;;0.27;70.47;99262.19;5047386;28;20493;-73
2022/12/02 10:33:50;;;;;;;12.57;7.13;;;;;;;0.25;70.54;99264.28;5047600;28;20322;-73
2022/12/02 10:36:32;;;;;;;12.15;7.28;;;;;;;0.25;70.58;99267.78;5048192;28;20096;-73
2022/12/02 10:39:20;;;;;;;12.45;7.47;;;;;;;0.26;70.79;99260.53;5041219;28;20087;-73
2022/12/02 10:41:46;;;;;;;13.65;7.43;;;;;;;0.28;70.73;99263.88;5042131;28;20037;-74
2022/12/02 10:44:15;;;;;;;15.90;8.15;;;;;;;0.26;70.88;99261.34;5048542;28;20039;-74
2022/12/02 10:46:40;;;;;;;16.17;9.10;;;;;;;0.25;70.57;99266.97;5048478;28;20033;-74
2022/12/02 10:49:24;;;;;;;14.05;7.95;;;;;;;0.20;70.76;99262.22;5050925;28;20134;-74
2022/12/02 10:51:50;;;;;;;14.55;7.85;;;;;;;0.23;70.83;99255.56;5050243;28;20041;-75
2022/12/02 10:54:28;;;;;;;18.67;9.57;;;;;;;0.25;70.42;99253.50;5050670;28;20032;-75
2022/12/02 10:56:55;;;;;;;15.15;8.18;;;;;;;0.32;70.61;99248.91;5052359;28;20127;-74
2022/12/02 10:59:21;;;;;;;15.23;7.72;;;;;;;0.34;70.63;99246.00;5046000;28;20025;-74
2022/12/02 11:01:47;;;;;;;14.07;7.78;;;;;;;0.36;70.41;99247.47;5048541;28;20120;-74
2022/12/02 11:04:14;;;;;;;18.83;7.93;;;;;;;0.34;70.90;99241.44;5050672;28;20100;-74
2022/12/02 11:06:40;;;;;;;15.50;8.85;;;;;;;0.36;70.28;99246.63;5046898;28;20025;-75
2022/12/02 11:09:07;;;;;;;66.78;20.90;;;;;;;0.36;70.21;99239.38;5050458;28;20029;-75
2022/12/02 11:11:32;;;;;;;39.25;15.98;;;;;;;0.34;70.47;99240.59;5050374;28;20021;-74
2022/12/02 11:14:00;;;;;;;30.40;14.02;;;;;;;0.32;70.14;99235.44;5050440;28;20438;-75
2022/12/02 11:16:26;;;;;;;30.13;17.13;;;;;;;0.34;70.42;99235.19;5049280;28;20112;-76
2022/12/02 11:19:05;;;;;;;21.60;11.82;;;;;;;0.31;70.23;99241.88;5050464;28;20100;-76
2022/12/02 11:21:34;;;;;;;17.08;9.35;;;;;;;0.32;70.12;99237.28;5050161;28;20119;-74
2022/12/02 11:24:21;;;;;;;19.40;10.00;;;;;;;0.27;70.26;99246.00;5050331;28;20427;-75
2022/12/02 11:26:58;;;;;;;17.77;9.43;;;;;;;0.25;70.65;99234.59;5049167;28;20513;-76
2022/12/02 11:29:25;;;;;;;18.10;9.30;;;;;;;0.27;70.39;99238.72;5050100;28;20150;-74
2022/12/02 11:32:20;;;;;;;17.98;8.55;;;;;;;0.31;70.12;99233.78;5048651;28;20025;-74
2022/12/02 11:34:48;;;;;;;15.50;7.85;;;;;;;0.32;70.77;99231.88;5050137;28;20037;-74